Time;durP1;ratioP1;P1;durP2;ratioP2;P2;SDS_P1;SDS_P2;PMS_P1;PMS_P2;Temp;Humidity;BMP_temperature;BMP_pressure;BME280_temperature;BME280_humidity;BME280_pressure;Samples;Min_cycle;Max_cycle;Signal;HPM_P1;HPM_P2
2023/08/13 00:01:05;;;;;;;14.50;3.20;;;17.60;99.90;;;;;;5065992;28;20055;-57
2023/08/13 00:03:31;;;;;;;12.43;3.65;;;17.60;99.90;;;;;;5064195;28;20045;-56
2023/08/13 00:05:56;;;;;;;14.38;3.28;;;17.70;99.90;;;;;;5066888;28;20045;-56
2023/08/13 00:08:22;;;;;;;14.23;3.42;;;17.60;99.90;;;;;;5072479;28;20039;-56
2023/08/13 00:10:48;;;;;;;17.08;3.38;;;17.60;99.90;;;;;;5072014;28;20418;-56
2023/08/13 00:13:13;;;;;;;17.17;4.10;;;17.60;99.90;;;;;;5066008;28;20121;-56
2023/08/13 00:15:39;;;;;;;12.57;3.60;;;17.70;99.90;;;;;;5061068;28;20070;-57
2023/08/13 00:18:05;;;;;;;14.30;3.30;;;17.60;99.90;;;;;;5072871;28;20037;-56
2023/08/13 00:20:31;;;;;;;14.93;3.83;;;17.60;99.90;;;;;;5061765;28;20057;-56
2023/08/13 00:22:57;;;;;;;15.88;3.60;;;17.60;99.90;;;;;;5064959;28;20045;-55
2023/08/13 00:25:23;;;;;;;15.25;3.58;;;17.60;99.90;;;;;;5065998;28;20052;-55
2023/08/13 00:27:48;;;;;;;12.52;3.53;;;17.60;99.90;;;;;;5062213;28;20045;-57
2023/08/13 00:30:14;;;;;;;18.00;3.83;;;17.60;99.90;;;;;;5065495;28;20623;-56
2023/08/13 00:32:40;;;;;;;13.18;3.42;;;17.50;99.90;;;;;;5069343;28;20406;-56
2023/08/13 00:35:06;;;;;;;18.50;3.88;;;17.50;99.90;;;;;;5069008;28;20455;-56
2023/08/13 00:37:34;;;;;;;13.80;3.22;;;17.50;99.90;;;;;;5069452;28;20086;-56
2023/08/13 00:40:00;;;;;;;15.60;4.00;;;17.50;99.90;;;;;;5068694;28;20046;-56
2023/08/13 00:42:26;;;;;;;22.73;3.78;;;17.40;99.90;;;;;;5073195;28;20112;-55
2023/08/13 00:44:52;;;;;;;16.98;3.75;;;17.40;99.90;;;;;;5068545;28;20040;-56
2023/08/13 00:47:17;;;;;;;13.93;3.70;;;17.40;99.90;;;;;;5062298;28;20041;-56
2023/08/13 00:49:43;;;;;;;16.45;3.83;;;17.40;99.90;;;;;;5070099;28;20053;-56
2023/08/13 00:52:09;;;;;;;16.95;3.75;;;17.40;99.90;;;;;;5064496;28;20104;-56
2023/08/13 00:54:35;;;;;;;21.75;3.85;;;17.40;99.90;;;;;;5066846;28;20716;-56
2023/08/13 00:57:03;;;;;;;19.45;3.65;;;17.30;99.90;;;;;;5066793;28;20080;-56
2023/08/13 00:59:30;;;;;;;20.85;3.80;;;17.30;99.90;;;;;;5067340;28;20086;-54
2023/08/13 01:01:56;;;;;;;17.65;3.60;;;17.30;99.90;;;;;;5063359;28;20048;-56
2023/08/13 01:04:22;;;;;;;12.15;3.35;;;17.30;99.90;;;;;;5076869;28;20051;-56
2023/08/13 01:07:02;;;;;;;20.20;3.60;;;17.30;99.90;;;;;;5062372;28;20033;-56
2023/08/13 01:09:28;;;;;;;15.90;4.20;;;17.20;99.90;;;;;;5064218;28;20044;-56
2023/08/13 01:12:03;;;;;;;13.38;3.75;;;17.20;99.90;;;;;;5061575;28;20037;-56
2023/08/13 01:15:02;;;;;;;17.13;4.40;;;17.20;99.90;;;;;;5062793;28;20048;-56
2023/08/13 01:17:30;;;;;;;19.58;3.95;;;17.20;99.90;;;;;;5072300;28;20082;-55
2023/08/13 01:19:57;;;;;;;13.68;3.55;;;17.20;99.90;;;;;;5060339;28;20083;-56
2023/08/13 01:22:26;;;;;;;13.70;4.07;;;17.10;99.90;;;;;;5065826;28;20071;-55
2023/08/13 01:24:52;;;;;;;18.33;3.90;;;17.10;99.90;;;;;;5074849;28;20043;-57
2023/08/13 01:27:23;;;;;;;16.15;3.70;;;17.00;99.90;;;;;;5062691;28;20080;-56
2023/08/13 01:29:54;;;;;;;18.98;4.30;;;17.00;99.90;;;;;;5074610;28;20107;-56
2023/08/13 01:32:29;;;;;;;15.27;3.60;;;17.00;99.90;;;;;;5062408;28;20063;-57
2023/08/13 01:34:56;;;;;;;14.85;3.70;;;17.00;99.90;;;;;;5066864;28;20481;-55
2023/08/13 01:37:22;;;;;;;16.45;3.92;;;17.00;99.90;;;;;;5065716;28;20140;-56
2023/08/13 01:39:49;;;;;;;19.90;4.28;;;17.00;99.90;;;;;;5060928;28;20048;-56
2023/08/13 01:42:15;;;;;;;18.52;3.60;;;17.00;99.90;;;;;;5064051;28;20048;-56
2023/08/13 01:44:40;;;;;;;16.98;4.00;;;16.90;99.90;;;;;;5072866;28;20028;-56
2023/08/13 01:47:06;;;;;;;12.95;3.53;;;16.90;99.90;;;;;;5059654;28;20041;-58
2023/08/13 01:49:32;;;;;;;15.43;4.03;;;16.90;99.90;;;;;;5058896;28;20038;-56
2023/08/13 01:51:58;;;;;;;14.23;3.90;;;16.90;99.90;;;;;;5063834;28;20505;-56
2023/08/13 01:54:24;;;;;;;15.20;4.20;;;16.90;99.90;;;;;;5057876;28;20037;-56
2023/08/13 01:56:50;;;;;;;21.23;4.25;;;16.90;99.90;;;;;;5059409;28;20041;-56
2023/08/13 01:59:16;;;;;;;17.58;3.97;;;16.90;99.90;;;;;;5061455;28;20045;-57
2023/08/13 02:01:42;;;;;;;17.17;4.10;;;16.90;99.90;;;;;;5063515;28;20044;-57
2023/08/13 02:04:08;;;;;;;24.13;4.30;;;16.80;99.90;;;;;;5065532;28;20110;-55
2023/08/13 02:06:35;;;;;;;16.70;4.10;;;16.90;99.90;;;;;;5066151;28;20068;-57
2023/08/13 02:09:02;;;;;;;19.45;4.55;;;16.90;99.90;;;;;;5063975;28;20043;-56
2023/08/13 02:11:27;;;;;;;14.98;4.50;;;16.80;99.90;;;;;;5068813;28;20053;-56
2023/08/13 02:13:53;;;;;;;15.80;4.38;;;16.90;99.90;;;;;;5066736;28;20051;-56
2023/08/13 02:16:19;;;;;;;17.75;3.80;;;16.80;99.90;;;;;;5076271;28;20435;-56
2023/08/13 02:18:44;;;;;;;12.25;3.47;;;16.80;99.90;;;;;;5068129;28;20386;-56
2023/08/13 02:21:10;;;;;;;17.52;3.95;;;16.80;99.90;;;;;;5058108;28;20044;-57
2023/08/13 02:23:36;;;;;;;15.27;3.70;;;16.80;99.90;;;;;;5062636;28;20051;-56
2023/08/13 02:26:01;;;;;;;14.70;3.45;;;16.80;99.90;;;;;;5063399;28;20404;-55
2023/08/13 02:28:27;;;;;;;14.02;4.20;;;16.70;99.90;;;;;;5059762;28;20045;-55
2023/08/13 02:30:53;;;;;;;17.45;4.32;;;16.70;99.90;;;;;;5067742;28;20049;-56
2023/08/13 02:33:19;;;;;;;15.43;4.05;;;16.70;99.90;;;;;;5066355;28;20076;-56
2023/08/13 02:35:44;;;;;;;19.15;4.30;;;16.70;99.90;;;;;;5064046;28;20045;-56
2023/08/13 02:38:10;;;;;;;12.38;3.60;;;16.70;99.90;;;;;;5067986;28;20048;-56
2023/08/13 02:40:36;;;;;;;18.80;4.03;;;16.70;99.90;;;;;;5069753;28;20056;-56
2023/08/13 02:43:02;;;;;;;16.33;3.80;;;16.70;99.90;;;;;;5067349;28;20044;-55
2023/08/13 02:45:28;;;;;;;20.10;4.13;;;16.60;99.90;;;;;;5064193;28;20075;-56
2023/08/13 02:47:56;;;;;;;12.35;4.00;;;16.60;99.90;;;;;;5074590;28;20044;-56
2023/08/13 02:50:22;;;;;;;18.42;4.75;;;16.60;99.90;;;;;;5071327;28;20582;-56
2023/08/13 02:52:48;;;;;;;20.15;4.00;;;16.60;99.90;;;;;;5072607;28;20040;-57
2023/08/13 02:55:14;;;;;;;17.00;4.35;;;16.50;99.90;;;;;;5060929;28;20095;-56
2023/08/13 02:57:39;;;;;;;12.43;3.40;;;16.60;99.90;;;;;;5062247;28;20037;-56
2023/08/13 03:00:06;;;;;;;15.07;3.80;;;16.50;99.90;;;;;;5065304;28;20045;-55
2023/08/13 03:02:32;;;;;;;13.70;3.83;;;16.50;99.90;;;;;;5070579;28;20987;-56
2023/08/13 03:04:58;;;;;;;16.48;3.95;;;16.50;99.90;;;;;;5079100;28;20033;-60
2023/08/13 03:07:23;;;;;;;14.15;4.10;;;16.50;99.90;;;;;;5064771;28;20063;-57
2023/08/13 03:09:49;;;;;;;18.60;3.65;;;16.50;99.90;;;;;;5071773;28;20041;-57
2023/08/13 03:12:15;;;;;;;21.40;3.90;;;16.40;99.90;;;;;;5078456;28;20044;-57
2023/08/13 03:14:41;;;;;;;16.95;3.88;;;16.40;99.90;;;;;;5062463;28;20489;-57
2023/08/13 03:17:07;;;;;;;13.85;3.72;;;16.40;99.90;;;;;;5061533;28;20037;-58
2023/08/13 03:19:33;;;;;;;14.80;3.38;;;16.30;99.90;;;;;;5062651;28;20033;-57
2023/08/13 03:21:59;;;;;;;16.15;4.18;;;16.30;99.90;;;;;;5071136;28;20044;-57
2023/08/13 03:24:24;;;;;;;16.75;3.55;;;16.30;99.90;;;;;;5068968;28;20049;-57
2023/08/13 03:26:50;;;;;;;12.60;3.20;;;16.30;99.90;;;;;;5062829;28;20037;-58
2023/08/13 03:29:16;;;;;;;18.65;3.53;;;16.30;99.90;;;;;;5071041;28;20056;-57
2023/08/13 03:31:41;;;;;;;11.10;3.83;;;16.30;99.90;;;;;;5063687;28;20045;-57
2023/08/13 03:34:07;;;;;;;18.58;4.30;;;16.30;99.90;;;;;;5068894;28;20091;-58
2023/08/13 03:36:33;;;;;;;15.40;4.20;;;16.30;99.90;;;;;;5067519;28;20050;-57
2023/08/13 03:38:58;;;;;;;16.15;4.10;;;16.20;99.90;;;;;;5068013;28;20049;-57
2023/08/13 03:41:24;;;;;;;15.23;3.78;;;16.20;99.90;;;;;;5070983;28;20505;-58
2023/08/13 03:43:50;;;;;;;13.98;3.90;;;16.20;99.90;;;;;;5062982;28;20033;-57
2023/08/13 03:46:15;;;;;;;14.75;3.90;;;16.20;99.90;;;;;;5067939;28;20068;-57
2023/08/13 03:48:41;;;;;;;14.57;3.78;;;16.10;99.90;;;;;;5080027;28;20037;-57
2023/08/13 03:51:07;;;;;;;17.35;4.45;;;16.10;99.90;;;;;;5064359;28;20037;-57
2023/08/13 03:53:32;;;;;;;12.18;3.90;;;16.10;99.90;;;;;;5070968;28;20036;-57
2023/08/13 03:55:58;;;;;;;16.65;4.20;;;16.10;99.90;;;;;;5062817;28;20049;-57
2023/08/13 03:58:24;;;;;;;16.38;4.35;;;16.10;99.90;;;;;;5064209;28;20523;-55
2023/08/13 04:00:50;;;;;;;12.32;4.25;;;16.10;99.90;;;;;;5075637;28;20088;-57
2023/08/13 04:03:15;;;;;;;16.35;4.57;;;16.10;99.90;;;;;;5061342;28;20029;-57
2023/08/13 04:05:41;;;;;;;14.80;4.65;;;16.10;99.90;;;;;;5061235;28;20104;-57
2023/08/13 04:08:07;;;;;;;19.15;4.95;;;16.10;99.90;;;;;;5058101;28;20040;-57
2023/08/13 04:10:32;;;;;;;11.35;4.00;;;16.10;99.90;;;;;;5067404;28;20033;-57
2023/08/13 04:13:00;;;;;;;16.02;4.30;;;16.10;99.90;;;;;;5060687;28;20051;-56
2023/08/13 04:15:27;;;;;;;13.23;4.40;;;16.10;99.90;;;;;;5075298;28;20615;-57
2023/08/13 04:17:53;;;;;;;16.80;4.97;;;16.10;99.90;;;;;;5065998;28;20049;-58
2023/08/13 04:20:18;;;;;;;18.13;4.85;;;16.00;99.90;;;;;;5063276;28;20052;-57
2023/08/13 04:22:45;;;;;;;16.05;4.32;;;16.10;99.90;;;;;;5063302;28;20053;-57
2023/08/13 04:25:11;;;;;;;15.32;4.13;;;16.10;99.90;;;;;;5059285;28;20135;-57
2023/08/13 04:27:37;;;;;;;15.75;4.35;;;16.00;99.90;;;;;;5064622;28;20174;-55
2023/08/13 04:30:04;;;;;;;17.90;4.88;;;16.10;99.90;;;;;;5069664;28;20048;-57
2023/08/13 04:32:31;;;;;;;13.70;4.40;;;16.10;99.90;;;;;;5095203;28;20052;-57
2023/08/13 04:34:58;;;;;;;17.58;4.97;;;16.10;99.90;;;;;;5061723;28;20053;-58
2023/08/13 04:37:23;;;;;;;15.00;4.70;;;16.10;99.90;;;;;;5066724;28;20045;-57
2023/08/13 04:39:49;;;;;;;13.07;4.15;;;16.10;99.90;;;;;;5068530;28;20093;-56
2023/08/13 04:42:15;;;;;;;16.13;4.50;;;16.10;99.90;;;;;;5075321;28;20045;-57
2023/08/13 04:44:40;;;;;;;17.38;5.10;;;16.10;99.90;;;;;;5072899;28;20045;-58
2023/08/13 04:47:06;;;;;;;19.00;4.75;;;16.10;99.90;;;;;;5068404;28;20044;-56
2023/08/13 04:49:32;;;;;;;12.80;4.22;;;16.20;99.90;;;;;;5070228;28;20041;-56
2023/08/13 04:51:57;;;;;;;11.70;4.80;;;16.20;99.90;;;;;;5070861;28;20485;-57
2023/08/13 04:54:23;;;;;;;17.23;4.30;;;16.20;99.90;;;;;;5076058;28;20451;-57
2023/08/13 04:56:49;;;;;;;13.88;4.45;;;16.20;99.90;;;;;;5074101;28;20411;-56
2023/08/13 04:59:14;;;;;;;19.60;4.40;;;16.20;99.90;;;;;;5066243;28;20036;-57
2023/08/13 05:01:40;;;;;;;15.35;4.07;;;16.20;99.90;;;;;;5076776;28;20084;-56
2023/08/13 05:04:06;;;;;;;13.23;4.28;;;16.20;99.90;;;;;;5071440;28;20066;-57
2023/08/13 05:06:31;;;;;;;15.23;4.18;;;16.10;99.90;;;;;;5070324;28;20489;-57
2023/08/13 05:08:57;;;;;;;16.75;4.25;;;16.10;99.90;;;;;;5057554;28;20039;-58
2023/08/13 05:11:23;;;;;;;15.98;4.60;;;16.10;99.90;;;;;;5073859;28;20047;-57
2023/08/13 05:13:48;;;;;;;13.75;4.43;;;16.10;99.90;;;;;;5070991;28;20044;-57
2023/08/13 05:16:14;;;;;;;18.02;5.10;;;16.10;99.90;;;;;;5073294;28;20539;-57
2023/08/13 05:18:40;;;;;;;15.32;4.43;;;16.10;99.90;;;;;;5065734;28;20041;-58
2023/08/13 05:21:06;;;;;;;18.90;5.07;;;16.10;99.90;;;;;;5070260;28;20051;-57
2023/08/13 05:23:32;;;;;;;17.05;4.55;;;16.10;99.90;;;;;;5073742;28;20043;-58
2023/08/13 05:25:58;;;;;;;19.85;5.13;;;16.10;99.90;;;;;;5065470;28;20033;-56
2023/08/13 05:28:23;;;;;;;17.42;4.93;;;16.20;99.90;;;;;;5059993;28;20053;-56
2023/08/13 05:30:49;;;;;;;13.18;4.60;;;16.10;99.90;;;;;;5073610;28;20496;-57
2023/08/13 05:33:15;;;;;;;12.23;4.35;;;16.10;99.90;;;;;;5071170;28;20033;-57
2023/08/13 05:35:40;;;;;;;15.48;5.10;;;16.20;99.90;;;;;;5068829;28;20072;-57
2023/08/13 05:38:06;;;;;;;15.20;4.15;;;16.20;99.90;;;;;;5066541;28;20100;-58
2023/08/13 05:40:32;;;;;;;19.77;5.00;;;16.20;99.90;;;;;;5066838;28;20467;-57
2023/08/13 05:42:57;;;;;;;13.88;4.03;;;16.20;99.90;;;;;;5065291;28;20044;-57
2023/08/13 05:45:23;;;;;;;15.20;4.40;;;16.20;99.90;;;;;;5066433;28;20047;-58
2023/08/13 05:47:49;;;;;;;18.23;4.30;;;16.20;99.90;;;;;;5070740;28;20058;-57
2023/08/13 05:50:15;;;;;;;14.40;4.40;;;16.20;99.90;;;;;;5067342;28;20064;-57
2023/08/13 05:52:41;;;;;;;14.52;4.40;;;16.30;99.90;;;;;;5074968;28;20037;-58
2023/08/13 05:55:07;;;;;;;15.02;4.40;;;16.30;99.90;;;;;;5074331;28;20045;-57
2023/08/13 05:57:32;;;;;;;15.15;4.53;;;16.30;99.90;;;;;;5063529;28;20071;-57
2023/08/13 05:59:59;;;;;;;13.32;3.85;;;16.30;99.90;;;;;;5062945;28;20037;-56
2023/08/13 06:02:25;;;;;;;19.70;4.80;;;16.40;99.90;;;;;;5073796;28;20071;-56
2023/08/13 06:04:51;;;;;;;11.95;4.00;;;16.40;99.90;;;;;;5067035;28;20041;-56
2023/08/13 06:07:17;;;;;;;13.40;4.30;;;16.50;99.90;;;;;;5059617;28;20047;-57
2023/08/13 06:09:43;;;;;;;15.48;4.45;;;16.50;99.90;;;;;;5083123;28;20059;-56
2023/08/13 06:12:09;;;;;;;14.07;4.30;;;16.60;99.90;;;;;;5064571;28;20551;-56
2023/08/13 06:14:34;;;;;;;12.55;3.95;;;16.70;99.90;;;;;;5068334;28;20044;-56
2023/08/13 06:17:00;;;;;;;18.58;4.15;;;16.80;99.90;;;;;;5067911;28;20058;-56
2023/08/13 06:19:26;;;;;;;16.85;4.32;;;16.80;99.90;;;;;;5072569;28;20456;-56
2023/08/13 06:21:51;;;;;;;14.02;3.88;;;16.90;99.90;;;;;;5074881;28;20083;-56
2023/08/13 06:24:17;;;;;;;14.55;4.43;;;16.90;99.90;;;;;;5075827;28;20036;-57
2023/08/13 06:26:43;;;;;;;15.43;4.10;;;17.00;99.90;;;;;;5077174;28;20044;-56
2023/08/13 06:29:08;;;;;;;15.95;4.25;;;17.10;99.90;;;;;;5066524;28;20045;-56
2023/08/13 06:31:35;;;;;;;15.07;4.15;;;17.20;99.90;;;;;;5075155;28;20056;-56
2023/08/13 06:34:01;;;;;;;16.70;3.60;;;17.30;99.90;;;;;;5072083;28;20045;-56
2023/08/13 06:36:26;;;;;;;13.93;4.13;;;17.40;99.90;;;;;;5078190;28;20104;-56
2023/08/13 06:38:52;;;;;;;16.55;4.22;;;17.40;99.90;;;;;;5072700;28;20542;-56
2023/08/13 06:41:18;;;;;;;13.05;4.13;;;17.50;99.90;;;;;;5074932;28;20041;-56
2023/08/13 06:43:44;;;;;;;14.40;3.85;;;17.50;99.90;;;;;;5069664;28;20072;-56
2023/08/13 06:46:09;;;;;;;17.83;4.47;;;17.70;99.90;;;;;;5077567;28;20045;-56
2023/08/13 06:48:38;;;;;;;16.13;3.83;;;17.80;99.90;;;;;;5067017;28;20049;-56
2023/08/13 06:51:04;;;;;;;12.00;3.50;;;18.20;99.90;;;;;;5072164;28;20040;-58
2023/08/13 06:53:29;;;;;;;12.88;3.83;;;18.50;99.90;;;;;;5068479;28;20087;-57
2023/08/13 06:55:59;;;;;;;11.23;3.60;;;18.60;99.90;;;;;;5079661;28;20390;-56
2023/08/13 06:58:25;;;;;;;17.40;3.50;;;18.70;99.90;;;;;;5067377;28;20029;-56
2023/08/13 07:00:51;;;;;;;16.77;3.75;;;19.10;99.90;;;;;;5079584;28;20048;-56
2023/08/13 07:03:17;;;;;;;11.40;3.45;;;19.40;99.90;;;;;;5071001;28;20114;-56
2023/08/13 07:05:42;;;;;;;13.75;3.35;;;19.70;99.90;;;;;;5065062;28;20146;-57
2023/08/13 07:08:09;;;;;;;13.90;3.13;;;20.10;99.90;;;;;;5076808;28;20041;-56
2023/08/13 07:10:35;;;;;;;10.73;3.25;;;20.30;99.90;;;;;;5075634;28;20032;-56
2023/08/13 07:13:01;;;;;;;11.02;3.53;;;20.40;99.90;;;;;;5070555;28;20559;-56
2023/08/13 07:15:26;;;;;;;13.88;3.45;;;20.40;99.90;;;;;;5073308;28;20051;-57
2023/08/13 07:17:52;;;;;;;12.73;3.00;;;20.40;99.90;;;;;;5069936;28;20041;-56
2023/08/13 07:20:18;;;;;;;12.15;3.25;;;20.30;99.90;;;;;;5075207;28;20075;-56
2023/08/13 07:22:45;;;;;;;13.60;3.40;;;20.30;99.90;;;;;;5064969;28;20468;-56
2023/08/13 07:25:12;;;;;;;12.98;2.85;;;20.30;99.90;;;;;;5073489;28;20040;-57
2023/08/13 07:27:41;;;;;;;10.88;3.10;;;20.30;99.90;;;;;;5069756;28;20037;-57
2023/08/13 07:30:11;;;;;;;11.68;3.38;;;20.20;99.90;;;;;;5066072;28;20140;-59
2023/08/13 07:32:40;;;;;;;10.43;3.30;;;20.10;99.90;;;;;;5064665;28;20100;-58
2023/08/13 07:35:06;;;;;;;16.05;3.58;;;20.20;99.90;;;;;;5073704;28;20044;-57
2023/08/13 07:37:36;;;;;;;13.63;4.03;;;20.30;99.90;;;;;;5072230;28;20040;-57
2023/08/13 07:40:07;;;;;;;15.90;4.13;;;20.50;99.90;;;;;;5074042;28;20053;-57
2023/08/13 07:42:33;;;;;;;13.05;3.10;;;20.70;99.90;;;;;;5075011;28;20512;-57
2023/08/13 07:44:59;;;;;;;13.57;3.35;;;20.90;99.90;;;;;;5071445;28;20040;-57
2023/08/13 07:47:25;;;;;;;11.70;3.30;;;21.00;99.90;;;;;;5072687;28;20032;-56
2023/08/13 07:49:50;;;;;;;9.93;2.92;;;21.00;99.90;;;;;;5067038;28;20039;-57
2023/08/13 07:52:16;;;;;;;13.48;3.58;;;21.10;99.90;;;;;;5077265;28;20114;-56
2023/08/13 07:54:42;;;;;;;14.23;3.50;;;21.20;99.90;;;;;;5064918;28;20062;-57
2023/08/13 07:57:07;;;;;;;10.98;2.80;;;21.20;99.90;;;;;;5072507;28;20052;-57
2023/08/13 07:59:33;;;;;;;16.45;3.30;;;21.20;99.90;;;;;;5071989;28;20040;-57
2023/08/13 08:01:59;;;;;;;12.63;3.33;;;21.20;99.90;;;;;;5078304;28;20043;-57
2023/08/13 08:04:25;;;;;;;12.80;2.92;;;21.20;99.90;;;;;;5070673;28;20090;-55
2023/08/13 08:06:51;;;;;;;10.88;2.70;;;21.20;99.90;;;;;;5064800;28;20048;-57
2023/08/13 08:09:16;;;;;;;13.60;3.25;;;21.10;99.90;;;;;;5070040;28;20060;-57
2023/08/13 08:11:42;;;;;;;11.23;2.85;;;21.10;99.90;;;;;;5064072;28;20056;-58
2023/08/13 08:14:08;;;;;;;12.13;3.15;;;20.90;99.90;;;;;;5066286;28;20045;-57
2023/08/13 08:16:34;;;;;;;10.10;2.85;;;20.90;99.90;;;;;;5075360;28;20079;-57
2023/08/13 08:18:59;;;;;;;13.70;2.80;;;20.90;99.90;;;;;;5070421;28;20077;-57
2023/08/13 08:21:25;;;;;;;9.48;2.75;;;20.80;99.90;;;;;;5070003;28;20501;-57
2023/08/13 08:23:51;;;;;;;12.00;2.95;;;20.80;99.90;;;;;;5064206;28;20040;-57
2023/08/13 08:26:16;;;;;;;11.30;2.75;;;20.90;99.90;;;;;;5071911;28;20040;-57
2023/08/13 08:28:42;;;;;;;8.20;2.53;;;20.90;99.90;;;;;;5059111;28;20057;-57
2023/08/13 08:31:08;;;;;;;10.75;2.60;;;21.00;99.90;;;;;;5068758;28;20056;-58
2023/08/13 08:33:34;;;;;;;15.63;3.35;;;21.10;99.90;;;;;;5066765;28;20037;-60
2023/08/13 08:35:59;;;;;;;10.73;2.78;;;21.10;99.90;;;;;;5066942;28;20071;-59
2023/08/13 08:38:25;;;;;;;11.05;3.15;;;21.10;99.90;;;;;;5068258;28;20048;-60
2023/08/13 08:40:56;;;;;;;10.95;2.95;;;21.10;99.90;;;;;;5064526;28;20052;-59
2023/08/13 08:43:23;;;;;;;12.77;2.92;;;21.10;99.90;;;;;;5068701;28;20057;-58
2023/08/13 08:45:49;;;;;;;15.02;3.25;;;21.10;99.90;;;;;;5067111;28;20097;-57
2023/08/13 08:48:15;;;;;;;10.45;2.80;;;21.10;99.90;;;;;;5069848;28;20116;-57
2023/08/13 08:50:43;;;;;;;11.32;2.97;;;21.00;99.90;;;;;;5061005;28;20100;-57
2023/08/13 08:53:10;;;;;;;9.98;3.22;;;21.00;99.90;;;;;;5062900;28;20084;-58
2023/08/13 08:55:36;;;;;;;17.83;3.28;;;21.00;99.90;;;;;;5062525;28;20040;-57
2023/08/13 08:58:02;;;;;;;12.32;2.72;;;21.10;99.90;;;;;;5068871;28;20049;-58
2023/08/13 09:00:28;;;;;;;8.13;2.80;;;21.00;99.90;;;;;;5071716;28;20045;-57
2023/08/13 09:02:53;;;;;;;10.70;2.63;;;21.00;99.90;;;;;;5070314;28;20600;-57
2023/08/13 09:05:20;;;;;;;7.13;2.13;;;20.90;99.90;;;;;;5062307;28;20084;-56
2023/08/13 09:07:46;;;;;;;11.93;2.53;;;21.00;99.90;;;;;;5073003;28;20040;-57
2023/08/13 09:10:11;;;;;;;12.20;2.53;;;20.90;99.90;;;;;;5066275;28;20051;-57
2023/08/13 09:12:39;;;;;;;9.18;2.45;;;21.00;99.90;;;;;;5067432;28;20041;-57
2023/08/13 09:15:10;;;;;;;7.13;2.22;;;21.00;99.90;;;;;;5068262;28;20216;-57
2023/08/13 09:17:37;;;;;;;8.43;1.95;;;21.10;99.90;;;;;;5063081;28;20055;-57
2023/08/13 09:20:29;;;;;;;7.57;1.90;;;21.20;99.90;;;;;;5069314;28;20040;-57
2023/08/13 09:22:59;;;;;;;8.15;2.15;;;21.20;99.90;;;;;;5060481;28;20052;-57
2023/08/13 09:25:25;;;;;;;5.10;2.08;;;21.30;99.90;;;;;;5067955;28;20040;-57
2023/08/13 09:27:51;;;;;;;9.02;2.15;;;21.30;99.90;;;;;;5065414;28;20109;-57
2023/08/13 09:30:31;;;;;;;6.28;1.83;;;21.40;99.90;;;;;;5066121;28;20072;-57
2023/08/13 09:32:58;;;;;;;4.70;1.92;;;21.50;99.90;;;;;;5066158;28;20056;-57
2023/08/13 09:35:24;;;;;;;6.53;1.77;;;21.50;99.90;;;;;;5069585;28;20041;-57
2023/08/13 09:37:51;;;;;;;7.30;1.63;;;21.60;99.90;;;;;;5069814;28;20124;-57
2023/08/13 09:40:17;;;;;;;7.35;1.92;;;21.60;99.90;;;;;;5063596;28;20045;-58
2023/08/13 09:42:44;;;;;;;8.52;2.00;;;21.60;99.90;;;;;;5068512;28;20049;-57
2023/08/13 09:45:12;;;;;;;5.60;1.50;;;21.70;99.90;;;;;;5076918;28;20079;-57
2023/08/13 09:47:43;;;;;;;7.75;1.67;;;21.70;99.90;;;;;;5066914;28;20071;-57
2023/08/13 09:50:11;;;;;;;4.20;1.50;;;21.70;99.90;;;;;;5060216;28;20041;-57
2023/08/13 09:52:38;;;;;;;5.68;1.55;;;21.80;99.90;;;;;;5063914;28;20044;-57
2023/08/13 09:55:11;;;;;;;4.55;1.40;;;21.80;99.90;;;;;;5075919;28;20123;-58
2023/08/13 09:57:39;;;;;;;3.53;1.50;;;21.80;99.90;;;;;;5069317;28;20093;-57
2023/08/13 10:00:10;;;;;;;6.28;1.80;;;21.90;99.90;;;;;;5070009;28;20033;-56
2023/08/13 10:02:37;;;;;;;5.20;1.60;;;21.90;99.90;;;;;;5067532;28;20036;-57
2023/08/13 10:05:04;;;;;;;7.20;1.60;;;21.90;99.90;;;;;;5071100;28;20049;-57
2023/08/13 10:07:30;;;;;;;7.55;1.77;;;21.90;99.90;;;;;;5069938;28;20040;-57
2023/08/13 10:09:58;;;;;;;5.18;1.33;;;22.00;99.90;;;;;;5070510;28;20052;-57
2023/08/13 10:12:24;;;;;;;4.85;1.38;;;22.00;99.90;;;;;;5066587;28;20064;-56
2023/08/13 10:14:50;;;;;;;4.45;1.20;;;22.00;99.90;;;;;;5078010;28;20144;-57
2023/08/13 10:17:19;;;;;;;5.90;1.40;;;22.00;99.90;;;;;;5072103;28;20070;-57
2023/08/13 10:19:49;;;;;;;6.15;1.60;;;21.90;99.90;;;;;;5077362;28;20890;-57
2023/08/13 10:22:35;;;;;;;4.30;1.75;;;21.90;99.90;;;;;;5077492;28;20142;-57
2023/08/13 10:25:02;;;;;;;6.50;1.60;;;22.00;99.90;;;;;;5082460;28;20028;-57
2023/08/13 10:27:28;;;;;;;5.18;1.65;;;21.90;99.90;;;;;;5078068;28;20045;-57
2023/08/13 10:30:07;;;;;;;4.70;1.35;;;22.00;99.90;;;;;;5067493;28;20067;-57
2023/08/13 10:32:36;;;;;;;5.07;1.63;;;22.00;99.90;;;;;;5066744;28;20037;-58
2023/08/13 10:35:23;;;;;;;9.60;1.63;;;22.10;99.90;;;;;;5074714;28;20042;-57
2023/08/13 10:37:56;;;;;;;8.85;2.03;;;22.30;99.90;;;;;;5076256;28;20466;-58
2023/08/13 10:40:22;;;;;;;11.48;2.15;;;22.30;99.90;;;;;;5075364;28;20127;-58
2023/08/13 10:42:52;;;;;;;5.88;2.10;;;22.30;99.90;;;;;;5071573;28;20083;-57
2023/08/13 10:45:25;;;;;;;7.85;2.08;;;22.30;99.90;;;;;;5071137;28;20115;-58
2023/08/13 10:47:58;;;;;;;6.82;1.80;;;22.30;99.90;;;;;;5067877;28;20196;-58
2023/08/13 10:50:31;;;;;;;6.45;2.00;;;22.30;99.90;;;;;;5068795;28;20062;-57
2023/08/13 10:53:07;;;;;;;9.25;2.00;;;22.40;99.90;;;;;;5070099;28;20041;-57
2023/08/13 10:55:47;;;;;;;9.88;2.13;;;22.40;99.90;;;;;;5071516;28;20048;-57
2023/08/13 10:58:35;;;;;;;5.75;1.70;;;22.50;99.90;;;;;;5071570;28;20051;-57
2023/08/13 11:01:16;;;;;;;7.20;1.88;;;22.50;99.90;;;;;;5079211;28;20410;-58
2023/08/13 11:03:52;;;;;;;7.28;2.10;;;22.50;99.90;;;;;;5069183;28;20041;-57
2023/08/13 11:06:19;;;;;;;7.00;2.28;;;22.60;99.90;;;;;;5067559;28;20770;-57
2023/08/13 11:08:46;;;;;;;8.75;2.10;;;22.60;99.90;;;;;;5062619;28;20053;-57
2023/08/13 11:11:13;;;;;;;9.07;2.25;;;22.70;99.90;;;;;;5072756;28;20323;-57
2023/08/13 11:13:39;;;;;;;8.35;2.47;;;22.70;99.90;;;;;;5070841;28;20048;-57
2023/08/13 11:16:05;;;;;;;7.28;2.20;;;22.70;99.90;;;;;;5073849;28;20044;-57
2023/08/13 11:18:31;;;;;;;10.50;2.40;;;22.70;99.90;;;;;;5070897;28;20078;-58
2023/08/13 11:20:57;;;;;;;11.35;2.20;;;22.70;99.90;;;;;;5072766;28;20046;-57
2023/08/13 11:23:22;;;;;;;9.77;2.50;;;22.70;99.90;;;;;;5069177;28;20123;-57
2023/08/13 11:25:49;;;;;;;10.38;2.55;;;22.80;99.90;;;;;;5073855;28;20041;-56
2023/08/13 11:28:27;;;;;;;8.13;2.00;;;22.80;99.90;;;;;;5077579;28;20041;-57
2023/08/13 11:30:56;;;;;;;8.90;2.30;;;22.80;99.90;;;;;;5068121;28;20164;-57
2023/08/13 11:33:22;;;;;;;9.38;2.22;;;22.70;99.90;;;;;;5072974;28;20408;-57
2023/08/13 11:35:49;;;;;;;10.75;2.60;;;22.70;99.90;;;;;;5073641;28;20037;-57
2023/08/13 11:38:15;;;;;;;8.25;2.45;;;22.60;99.90;;;;;;5069373;28;20100;-56
2023/08/13 11:40:41;;;;;;;9.50;3.15;;;22.50;99.90;;;;;;5069221;28;20044;-57
2023/08/13 11:43:12;;;;;;;8.40;2.33;;;22.40;99.90;;;;;;5071050;28;20048;-57
2023/08/13 11:45:39;;;;;;;8.57;2.95;;;22.30;99.90;;;;;;5074066;28;20527;-57
2023/08/13 11:48:20;;;;;;;10.57;2.65;;;22.30;99.90;;;;;;5074292;28;20079;-60
2023/08/13 11:50:50;;;;;;;8.52;2.80;;;22.40;99.90;;;;;;5075420;28;20048;-57
2023/08/13 11:53:17;;;;;;;10.57;2.92;;;22.30;99.90;;;;;;5079035;28;20043;-58
2023/08/13 11:55:46;;;;;;;9.38;2.50;;;22.40;99.90;;;;;;5066054;28;20037;-58
2023/08/13 11:58:19;;;;;;;8.30;2.55;;;22.50;99.90;;;;;;5068508;28;20095;-57
2023/08/13 12:00:49;;;;;;;9.88;2.95;;;22.60;99.90;;;;;;5072380;28;20056;-57
2023/08/13 12:03:15;;;;;;;11.63;3.30;;;22.60;99.90;;;;;;5070864;28;20095;-57
2023/08/13 12:05:42;;;;;;;8.77;2.78;;;22.70;99.90;;;;;;5069304;28;20041;-57
2023/08/13 12:08:09;;;;;;;6.78;2.53;;;22.70;99.90;;;;;;5068475;28;20116;-57
2023/08/13 12:10:36;;;;;;;10.70;2.97;;;22.70;99.90;;;;;;5064214;28;20126;-58
2023/08/13 12:13:03;;;;;;;12.18;2.60;;;22.60;99.90;;;;;;5065858;28;20048;-57
2023/08/13 12:15:30;;;;;;;9.07;2.45;;;22.70;99.90;;;;;;5070453;28;20039;-55
2023/08/13 12:17:59;;;;;;;14.13;2.65;;;22.70;99.90;;;;;;5070033;28;20322;-57
2023/08/13 12:20:27;;;;;;;8.70;2.30;;;22.80;99.90;;;;;;5066636;28;20070;-58
2023/08/13 12:22:54;;;;;;;8.43;2.53;;;22.90;99.90;;;;;;5073207;28;20048;-57
2023/08/13 12:25:20;;;;;;;10.38;2.72;;;23.00;99.90;;;;;;5072528;28;20040;-58
2023/08/13 12:27:47;;;;;;;7.88;2.55;;;23.00;99.90;;;;;;5069526;28;20044;-57
2023/08/13 12:30:13;;;;;;;13.27;3.00;;;23.00;99.90;;;;;;5073731;28;20109;-57
2023/08/13 12:32:39;;;;;;;8.57;2.65;;;23.00;99.90;;;;;;5068414;28;20127;-58
2023/08/13 12:35:08;;;;;;;7.43;2.38;;;23.10;99.90;;;;;;5075575;28;20038;-57
2023/08/13 12:37:34;;;;;;;8.57;2.88;;;23.20;99.90;;;;;;5062388;28;20045;-57